Time;durP1;ratioP1;P1;durP2;ratioP2;P2;SDS_P1;SDS_P2;PMS_P1;PMS_P2;Temp;Humidity;BMP_temperature;BMP_pressure;BME280_temperature;BME280_humidity;BME280_pressure;Samples;Min_cycle;Max_cycle;Signal;HPM_P1;HPM_P2
2020/12/04 00:01:39;;;;;;;;;;;-0.50;99.90;;;;;;5095290;28;19912;-45
2020/12/04 00:04:04;;;;;;;;;;;-0.50;99.90;;;;;;5096489;28;20374;-45
2020/12/04 00:06:32;;;;;;;;;;;-0.50;99.90;;;;;;5096465;28;19958;-45
2020/12/04 00:08:57;;;;;;;;;;;-0.50;99.90;;;;;;5096454;28;19908;-45
2020/12/04 00:11:23;;;;;;;;;;;-0.60;99.90;;;;;;5096434;28;20422;-45
2020/12/04 00:13:49;;;;;;;;;;;-0.60;99.90;;;;;;5096665;28;19943;-45
2020/12/04 00:16:14;;;;;;;;;;;-0.60;99.90;;;;;;5095078;28;20078;-45
2020/12/04 00:18:40;;;;;;;;;;;-0.60;99.90;;;;;;5096818;28;19908;-45
2020/12/04 00:21:05;;;;;;;;;;;-0.60;99.90;;;;;;5094997;28;19974;-45
2020/12/04 00:23:31;;;;;;;;;;;-0.50;99.90;;;;;;5096210;28;20410;-45
2020/12/04 00:25:57;;;;;;;;;;;-0.50;99.90;;;;;;5094846;28;19916;-45
2020/12/04 00:28:23;;;;;;;;;;;-0.50;99.90;;;;;;5096515;28;20282;-45
2020/12/04 00:30:48;;;;;;;;;;;-0.50;99.90;;;;;;5096048;28;20082;-45
2020/12/04 00:33:14;;;;;;;;;;;-0.50;99.90;;;;;;5096295;28;20346;-44
2020/12/04 00:35:39;;;;;;;;;;;-0.60;99.90;;;;;;5094945;28;20019;-45
2020/12/04 00:38:05;;;;;;;;;;;-0.70;99.90;;;;;;5096424;28;19908;-45
2020/12/04 00:40:31;;;;;;;;;;;-0.60;99.90;;;;;;5095836;28;19908;-44
2020/12/04 00:42:57;;;;;;;;;;;-0.60;99.90;;;;;;5095411;28;19920;-44
2020/12/04 00:45:23;;;;;;;;;;;-0.60;99.90;;;;;;5096251;28;20345;-45
2020/12/04 00:47:50;;;;;;;;;;;-0.60;99.90;;;;;;5095737;28;19912;-44
2020/12/04 00:50:16;;;;;;;;;;;-0.50;99.90;;;;;;5095647;28;20416;-45
2020/12/04 00:52:42;;;;;;;;;;;-0.50;99.90;;;;;;5095607;28;19908;-45
2020/12/04 00:55:07;;;;;;;;;;;-0.50;99.90;;;;;;5096187;28;20372;-44
2020/12/04 00:57:33;;;;;;;;;;;-0.50;99.90;;;;;;5095824;28;19909;-44
2020/12/04 00:59:59;;;;;;;;;;;-0.60;99.90;;;;;;5095217;28;19912;-44
2020/12/04 01:02:24;;;;;;;;;;;-0.70;99.90;;;;;;5095446;28;20434;-44
2020/12/04 01:04:50;;;;;;;;;;;-0.70;99.90;;;;;;5095293;28;20012;-45
2020/12/04 01:07:15;;;;;;;;;;;-0.70;99.90;;;;;;5094517;28;19912;-45
2020/12/04 01:09:41;;;;;;;;;;;-0.70;99.90;;;;;;5095288;28;19908;-44
2020/12/04 01:12:07;;;;;;;;;;;-0.80;99.90;;;;;;5093678;28;19915;-45
2020/12/04 01:14:32;;;;;;;;;;;-0.70;99.90;;;;;;5093913;28;19915;-44
2020/12/04 01:16:58;;;;;;;;;;;-0.60;99.90;;;;;;5095442;28;19914;-44
2020/12/04 01:19:24;;;;;;;;;;;-0.60;99.90;;;;;;5094851;28;19908;-45
2020/12/04 01:21:50;;;;;;;;;;;-0.50;99.90;;;;;;5095617;28;19962;-45
2020/12/04 01:24:15;;;;;;;;;;;-0.40;99.90;;;;;;5095250;28;20350;-45
2020/12/04 01:26:41;;;;;;;;;;;-0.30;99.90;;;;;;5094658;28;20007;-45
2020/12/04 01:29:07;;;;;;;;;;;-0.20;99.90;;;;;;5093577;28;19955;-45
2020/12/04 01:31:33;;;;;;;;;;;-0.20;99.90;;;;;;5094612;28;20282;-45
2020/12/04 01:34:01;;;;;;;;;;;-0.20;99.90;;;;;;5095432;28;19912;-45
2020/12/04 01:36:27;;;;;;;;;;;-0.20;99.90;;;;;;5093475;28;19908;-44
2020/12/04 01:38:53;;;;;;;;;;;-0.20;99.90;;;;;;5095042;28;19908;-45
2020/12/04 01:41:19;;;;;;;;;;;-0.20;99.90;;;;;;5095344;28;19923;-45
2020/12/04 01:43:45;;;;;;;;;;;-0.20;99.90;;;;;;5094654;28;19924;-45
2020/12/04 01:46:11;;;;;;;;;;;-0.20;99.90;;;;;;5093436;28;20370;-45
2020/12/04 01:48:38;;;;;;;;;;;-0.20;99.90;;;;;;5094116;28;20465;-45
2020/12/04 01:51:04;;;;;;;;;;;-0.10;99.90;;;;;;5094299;28;20370;-44
2020/12/04 01:53:29;;;;;;;;;;;-0.20;99.90;;;;;;5095121;28;19912;-44
2020/12/04 01:55:55;;;;;;;;;;;-0.10;99.90;;;;;;5094791;28;19908;-44
2020/12/04 01:58:21;;;;;;;;;;;-0.10;99.90;;;;;;5094049;28;20262;-44
2020/12/04 02:00:46;;;;;;;;;;;-0.10;99.90;;;;;;5094435;28;19913;-45
2020/12/04 02:03:14;;;;;;;;;;;-0.10;99.90;;;;;;5094129;28;19947;-45
2020/12/04 02:05:47;;;;;;;;;;;-0.10;99.90;;;;;;5094221;28;20413;-45
2020/12/04 02:08:23;;;;;;;;;;;-0.10;99.90;;;;;;5094531;28;20281;-45
2020/12/04 02:10:52;;;;;;;;;;;-0.10;99.90;;;;;;5127080;27;19909;-45
2020/12/04 02:13:18;;;;;;;;;;;-0.10;99.90;;;;;;5094261;28;20324;-45
2020/12/04 02:15:44;;;;;;;;;;;-0.20;99.90;;;;;;5094269;28;20442;-44
2020/12/04 02:18:10;;;;;;;;;;;-0.30;99.90;;;;;;5094578;28;19954;-45
2020/12/04 02:20:36;;;;;;;;;;;-0.30;99.90;;;;;;5093806;28;19909;-45
2020/12/04 02:23:01;;;;;;;;;;;-0.20;99.90;;;;;;5093874;28;20396;-45
2020/12/04 02:25:27;;;;;;;;;;;-0.30;99.90;;;;;;5094010;28;19919;-45
2020/12/04 02:27:53;;;;;;;;;;;-0.20;99.90;;;;;;5094124;28;20447;-44
2020/12/04 02:30:29;;;;;;;;;;;-0.20;99.90;;;;;;5094390;28;19909;-45
2020/12/04 02:32:55;;;;;;;;;;;-0.20;99.90;;;;;;5092779;28;19969;-44
2020/12/04 02:35:21;;;;;;;;;;;-0.20;99.90;;;;;;5093767;28;19987;-44
2020/12/04 02:37:46;;;;;;;;;;;-0.10;99.90;;;;;;5094601;28;19959;-45
2020/12/04 02:40:12;;;;;;;;;;;-0.10;99.90;;;;;;5094047;28;19908;-45
2020/12/04 02:42:40;;;;;;;;;;;-0.20;99.90;;;;;;5094227;28;19927;-45
2020/12/04 02:45:06;;;;;;;;;;;-0.10;99.90;;;;;;5093899;28;19912;-45
2020/12/04 02:47:31;;;;;;;;;;;-0.10;99.90;;;;;;5093967;28;19912;-45
2020/12/04 02:49:57;;;;;;;;;;;0.00;99.90;;;;;;5094476;28;19915;-45
2020/12/04 02:52:23;;;;;;;;;;;0.00;99.90;;;;;;5092619;28;19918;-45
2020/12/04 02:54:49;;;;;;;;;;;0.00;99.90;;;;;;5092358;28;19908;-45
2020/12/04 02:57:15;;;;;;;;;;;0.00;99.90;;;;;;5093896;28;19915;-45
2020/12/04 02:59:40;;;;;;;;;;;0.00;99.90;;;;;;5093867;28;19908;-45
2020/12/04 03:02:06;;;;;;;;;;;-0.10;99.90;;;;;;5093999;28;19908;-45
2020/12/04 03:04:31;;;;;;;;;;;0.00;99.90;;;;;;5093819;28;19919;-45
2020/12/04 03:06:57;;;;;;;;;;;-0.10;99.90;;;;;;5093606;28;19912;-44
2020/12/04 03:09:23;;;;;;;;;;;-0.10;99.90;;;;;;5093881;28;20362;-44
2020/12/04 03:11:48;;;;;;;;;;;-0.10;99.90;;;;;;5093320;28;19908;-45
2020/12/04 03:14:14;;;;;;;;;;;0.00;99.90;;;;;;5094077;28;19947;-45
2020/12/04 03:16:40;;;;;;;;;;;0.00;99.90;;;;;;5093761;28;20405;-45
2020/12/04 03:19:05;;;;;;;;;;;0.00;99.90;;;;;;5093588;28;19912;-45
2020/12/04 03:21:31;;;;;;;;;;;0.00;99.90;;;;;;5093688;28;19908;-44
2020/12/04 03:23:57;;;;;;;;;;;0.00;99.90;;;;;;5093353;28;19912;-44
2020/12/04 03:26:22;;;;;;;;;;;0.00;99.90;;;;;;5092158;28;19916;-44
2020/12/04 03:28:48;;;;;;;;;;;0.00;99.90;;;;;;5093398;28;20392;-44
2020/12/04 03:31:14;;;;;;;;;;;0.00;99.90;;;;;;5095168;28;19912;-45
2020/12/04 03:33:39;;;;;;;;;;;-0.10;99.90;;;;;;5097281;28;19912;-45
2020/12/04 03:36:05;;;;;;;;;;;-0.20;99.90;;;;;;5095388;28;19940;-45
2020/12/04 03:38:30;;;;;;;;;;;-0.20;99.90;;;;;;5097451;28;20243;-44
2020/12/04 03:40:57;;;;;;;;;;;-0.30;99.90;;;;;;5095579;28;20328;-45
2020/12/04 03:43:22;;;;;;;;;;;-0.30;99.90;;;;;;5096550;28;19920;-45
2020/12/04 03:45:48;;;;;;;;;;;-0.30;99.90;;;;;;5097230;28;19912;-44
2020/12/04 03:48:13;;;;;;;;;;;-0.30;99.90;;;;;;5097049;28;19912;-45
2020/12/04 03:50:39;;;;;;;;;;;-0.30;99.90;;;;;;5096676;28;19912;-45
2020/12/04 03:53:05;;;;;;;;;;;-0.30;99.90;;;;;;5096624;28;19912;-45
2020/12/04 03:55:30;;;;;;;;;;;-0.30;99.90;;;;;;5096601;28;19908;-44
2020/12/04 03:57:56;;;;;;;;;;;-0.10;99.90;;;;;;5096807;28;20358;-45
2020/12/04 04:00:22;;;;;;;;;;;0.00;99.90;;;;;;5096762;28;20377;-45
2020/12/04 04:02:48;;;;;;;;;;;0.20;99.90;;;;;;5096137;28;20020;-45
2020/12/04 04:05:13;;;;;;;;;;;0.20;99.90;;;;;;5096600;28;20046;-44
2020/12/04 04:07:39;;;;;;;;;;;0.20;99.90;;;;;;5096352;28;19916;-45
2020/12/04 04:10:05;;;;;;;;;;;0.30;99.90;;;;;;5096827;28;19908;-45
2020/12/04 04:12:30;;;;;;;;;;;0.30;99.90;;;;;;5094988;28;20439;-45
2020/12/04 04:14:56;;;;;;;;;;;0.30;99.90;;;;;;5095996;28;20380;-45
2020/12/04 04:17:22;;;;;;;;;;;0.30;99.90;;;;;;5096167;28;19947;-45
2020/12/04 04:19:47;;;;;;;;;;;0.30;99.90;;;;;;5096382;28;20381;-44
2020/12/04 04:22:13;;;;;;;;;;;0.30;99.90;;;;;;5096263;28;20357;-45
2020/12/04 04:24:39;;;;;;;;;;;0.30;99.90;;;;;;5096135;28;19916;-45
2020/12/04 04:27:04;;;;;;;;;;;0.30;99.90;;;;;;5095672;28;20328;-44
2020/12/04 04:29:30;;;;;;;;;;;0.30;99.90;;;;;;5094579;28;19908;-45
2020/12/04 04:31:56;;;;;;;;;;;0.20;99.90;;;;;;5095856;28;19934;-45
2020/12/04 04:34:21;;;;;;;;;;;0.20;99.90;;;;;;5096045;28;19916;-44
2020/12/04 04:36:47;;;;;;;;;;;0.20;99.90;;;;;;5096030;28;20380;-44
2020/12/04 04:39:13;;;;;;;;;;;0.10;99.90;;;;;;5095393;28;20025;-45
2020/12/04 04:41:38;;;;;;;;;;;0.10;99.90;;;;;;5095319;28;19908;-44
2020/12/04 04:44:04;;;;;;;;;;;0.10;99.90;;;;;;5095001;28;19912;-44
2020/12/04 04:46:32;;;;;;;;;;;0.00;99.90;;;;;;5096104;28;19912;-44
2020/12/04 04:48:59;;;;;;;;;;;0.00;99.90;;;;;;5095966;28;19931;-44
2020/12/04 04:51:24;;;;;;;;;;;0.00;99.90;;;;;;5095833;28;19981;-44
2020/12/04 04:54:00;;;;;;;;;;;0.00;99.90;;;;;;5094162;28;19912;-45
2020/12/04 04:56:26;;;;;;;;;;;-0.10;99.90;;;;;;5094219;28;19908;-45
2020/12/04 04:58:52;;;;;;;;;;;-0.10;99.90;;;;;;5095669;28;20301;-44
2020/12/04 05:01:17;;;;;;;;;;;-0.10;99.90;;;;;;5095369;28;20289;-45
2020/12/04 05:03:59;;;;;;;;;;;-0.10;99.90;;;;;;5093668;28;20085;-44
2020/12/04 05:06:35;;;;;;;;;;;-0.10;99.90;;;;;;5095745;28;19912;-44
2020/12/04 05:09:02;;;;;;;;;;;-0.10;99.90;;;;;;5095398;28;19908;-45
2020/12/04 05:11:27;;;;;;;;;;;-0.10;99.90;;;;;;5094816;28;19930;-45
2020/12/04 05:14:13;;;;;;;;;;;-0.20;99.90;;;;;;5095336;28;20354;-45
2020/12/04 05:16:40;;;;;;;;;;;-0.20;99.90;;;;;;5094901;27;19963;-45
2020/12/04 05:19:05;;;;;;;;;;;-0.20;99.90;;;;;;5093367;28;20369;-45
2020/12/04 05:21:32;;;;;;;;;;;-0.20;99.90;;;;;;5095174;28;19919;-44
2020/12/04 05:23:59;;;;;;;;;;;-0.30;99.90;;;;;;5094552;28;19959;-44
2020/12/04 05:26:35;;;;;;;;;;;-0.30;99.90;;;;;;5094766;28;19954;-44
2020/12/04 05:29:02;;;;;;;;;;;-0.30;99.90;;;;;;5095058;28;19916;-44
2020/12/04 05:31:31;;;;;;;;;;;-0.20;99.90;;;;;;5094736;28;19919;-44
2020/12/04 05:33:57;;;;;;;;;;;-0.20;99.90;;;;;;5094906;28;19908;-44
2020/12/04 05:36:27;;;;;;;;;;;-0.20;99.90;;;;;;5094613;28;20003;-44
2020/12/04 05:38:54;;;;;;;;;;;-0.20;99.90;;;;;;5094789;28;19915;-45
2020/12/04 05:41:19;;;;;;;;;;;-0.10;99.90;;;;;;5094993;28;20350;-44
2020/12/04 05:43:45;;;;;;;;;;;-0.10;99.90;;;;;;5093879;28;19920;-44
2020/12/04 05:46:17;;;;;;;;;;;-0.10;99.90;;;;;;5094518;28;19916;-44
2020/12/04 05:48:54;;;;;;;;;;;-0.10;99.90;;;;;;5094702;28;19957;-44
2020/12/04 05:51:22;;;;;;;;;;;-0.20;99.90;;;;;;5094384;28;19920;-44
2020/12/04 05:53:49;;;;;;;;;;;-0.20;99.90;;;;;;5094634;28;19908;-44
2020/12/04 05:56:15;;;;;;;;;;;-0.20;99.90;;;;;;5094600;28;19914;-44
2020/12/04 05:58:40;;;;;;;;;;;-0.30;99.90;;;;;;5093833;28;20360;-45
2020/12/04 06:01:06;;;;;;;;;;;-0.20;99.90;;;;;;5094154;28;19912;-44
2020/12/04 06:03:32;;;;;;;;;;;-0.20;99.90;;;;;;5094320;28;20412;-45
2020/12/04 06:06:01;;;;;;;;;;;-0.20;99.90;;;;;;5094660;28;19915;-44
2020/12/04 06:08:27;;;;;;;;;;;-0.10;99.90;;;;;;5092958;28;20435;-44
2020/12/04 06:10:53;;;;;;;;;;;-0.10;99.90;;;;;;5092566;28;19908;-44
2020/12/04 06:13:19;;;;;;;;;;;-0.10;99.90;;;;;;5094715;28;20251;-44
2020/12/04 06:15:44;;;;;;;;;;;-0.10;99.90;;;;;;5094136;28;19915;-44
2020/12/04 06:18:13;;;;;;;;;;;-0.20;99.90;;;;;;5094354;28;20311;-44
2020/12/04 06:20:43;;;;;;;;;;;-0.20;99.90;;;;;;5094246;28;19915;-44
2020/12/04 06:23:15;;;;;;;;;;;-0.10;99.90;;;;;;5093776;28;19915;-44
2020/12/04 06:25:50;;;;;;;;;;;-0.10;99.90;;;;;;5094169;28;19969;-44
2020/12/04 06:28:17;;;;;;;;;;;-0.10;99.90;;;;;;5093839;28;20361;-44
2020/12/04 06:31:02;;;;;;;;;;;0.00;99.90;;;;;;5093894;28;20392;-44
2020/12/04 06:33:31;;;;;;;;;;;0.00;99.90;;;;;;5094239;28;20349;-44
2020/12/04 06:35:57;;;;;;;;;;;0.00;99.90;;;;;;5094074;28;19915;-44
2020/12/04 06:38:32;;;;;;;;;;;0.00;99.90;;;;;;5094365;28;20285;-44
2020/12/04 06:41:13;;;;;;;;;;;0.10;99.90;;;;;;5093762;28;19915;-44
2020/12/04 06:43:39;;;;;;;;;;;0.00;99.90;;;;;;5094201;28;20289;-44
2020/12/04 06:46:04;;;;;;;;;;;0.00;99.90;;;;;;5092254;28;19916;-44
2020/12/04 06:48:30;;;;;;;;;;;0.00;99.90;;;;;;5094099;28;19930;-44
2020/12/04 06:50:56;;;;;;;;;;;0.00;99.90;;;;;;5093551;28;20378;-44
2020/12/04 06:53:21;;;;;;;;;;;-0.10;99.90;;;;;;5092520;28;19952;-44
2020/12/04 06:55:48;;;;;;;;;;;-0.10;99.90;;;;;;5093944;28;20345;-44
2020/12/04 06:58:13;;;;;;;;;;;-0.10;99.90;;;;;;5094196;28;20281;-44
2020/12/04 07:00:39;;;;;;;;;;;-0.10;99.90;;;;;;5094180;28;19912;-44
2020/12/04 07:03:05;;;;;;;;;;;0.00;99.90;;;;;;5092170;28;19961;-44
2020/12/04 07:05:33;;;;;;;;;;;0.00;99.90;;;;;;5094792;28;19916;-44
2020/12/04 07:08:02;;;;;;;;;;;0.10;99.90;;;;;;5097695;28;20282;-44
2020/12/04 07:10:30;;;;;;;;;;;0.20;99.90;;;;;;5097464;28;19943;-44
2020/12/04 07:12:57;;;;;;;;;;;0.20;99.90;;;;;;5097734;28;19958;-44
2020/12/04 07:15:22;;;;;;;;;;;0.20;99.90;;;;;;5097314;28;20002;-44
2020/12/04 07:17:48;;;;;;;;;;;0.20;99.90;;;;;;5097555;28;19955;-43
2020/12/04 07:20:14;;;;;;;;;;;0.20;99.90;;;;;;5097320;28;19915;-44
2020/12/04 07:22:40;;;;;;;;;;;0.20;99.90;;;;;;5095975;28;20285;-44
2020/12/04 07:25:06;;;;;;;;;;;0.20;99.90;;;;;;5097522;28;19916;-44
2020/12/04 07:27:32;;;;;;;;;;;0.20;99.90;;;;;;5097168;28;19908;-44
2020/12/04 07:29:58;;;;;;;;;;;0.20;99.90;;;;;;5096704;28;19908;-44
2020/12/04 07:32:24;;;;;;;;;;;0.30;99.90;;;;;;5095519;28;19916;-44
2020/12/04 07:34:50;;;;;;;;;;;0.30;99.90;;;;;;5095209;28;19908;-43
2020/12/04 07:37:16;;;;;;;;;;;0.40;99.90;;;;;;5086310;28;19912;-40
2020/12/04 07:39:43;;;;;;;;;;;0.50;99.90;;;;;;5074536;28;19978;-44
2020/12/04 07:42:10;;;;;;;;;;;0.60;99.90;;;;;;5074857;28;19962;-44
2020/12/04 07:44:37;;;;;;;;;;;0.70;99.90;;;;;;5074189;28;19977;-43
2020/12/04 07:47:05;;;;;;;;;;;0.80;99.90;;;;;;5089354;28;19999;-44
2020/12/04 07:49:31;;;;;;;;;;;0.90;99.90;;;;;;5081956;28;19916;-44
2020/12/04 07:52:07;;;;;;;;;;;1.10;99.90;;;;;;5078261;28;19959;-44
2020/12/04 07:54:33;;;;;;;;;;;1.20;99.90;;;;;;5087043;28;19912;-44
2020/12/04 07:56:59;;;;;;;;;;;1.20;99.90;;;;;;5080897;28;20006;-36
2020/12/04 07:59:26;;;;;;;;;;;1.30;99.90;;;;;;5072813;28;19966;-36
